createdAt,value
2023-03-19T00:03:53.891Z,11.30
2023-03-19T00:07:55.672Z,11.30
2023-03-19T00:11:57.584Z,11.30
2023-03-19T00:15:59.402Z,11.20
2023-03-19T00:20:01.099Z,11.10
2023-03-19T00:24:02.999Z,11.00
2023-03-19T00:28:04.614Z,11.00
2023-03-19T00:32:07.342Z,11.00
2023-03-19T00:36:09.981Z,10.90
2023-03-19T00:40:11.940Z,11.00
2023-03-19T00:44:13.534Z,10.90
2023-03-19T00:48:15.209Z,10.80
2023-03-19T00:52:16.787Z,10.90
2023-03-19T00:56:18.978Z,10.90
2023-03-19T01:00:20.641Z,10.90
2023-03-19T01:04:23.248Z,10.90
2023-03-19T01:08:24.907Z,10.90
2023-03-19T01:12:26.577Z,10.90
2023-03-19T01:16:28.323Z,10.90
2023-03-19T01:20:29.952Z,10.90
2023-03-19T01:24:32.288Z,10.70
2023-03-19T01:28:33.959Z,10.50
2023-03-19T01:32:35.689Z,10.20
2023-03-19T01:36:37.358Z,10.10
2023-03-19T01:40:43.833Z,10.10
2023-03-19T01:44:45.527Z,10.10
2023-03-19T01:48:55.058Z,10.30
2023-03-19T01:52:56.855Z,10.60
2023-03-19T01:57:00.548Z,10.70
2023-03-19T02:01:03.127Z,10.80
2023-03-19T02:05:25.438Z,10.90
2023-03-19T02:09:27.307Z,10.90
2023-03-19T02:13:28.928Z,10.90
2023-03-19T02:17:30.986Z,10.90
2023-03-19T02:21:32.686Z,10.80
2023-03-19T02:25:46.871Z,10.80
2023-03-19T02:29:49.533Z,10.90
2023-03-19T02:33:59.456Z,11.00
2023-03-19T02:38:03.336Z,11.00
2023-03-19T02:42:05.355Z,11.00
2023-03-19T02:46:08.368Z,11.00
2023-03-19T02:50:10.684Z,10.90
2023-03-19T02:54:12.276Z,10.90
2023-03-19T02:58:13.879Z,10.80
2023-03-19T03:02:15.534Z,10.70
2023-03-19T03:06:18.014Z,10.80
2023-03-19T03:10:20.261Z,10.70
2023-03-19T03:14:22.083Z,10.60
2023-03-19T03:18:23.771Z,10.60
2023-03-19T03:22:25.354Z,10.50
2023-03-19T03:26:27.251Z,10.50
2023-03-19T03:30:29.246Z,10.50
2023-03-19T03:38:56.783Z,10.50
2023-03-19T03:42:58.391Z,10.50
2023-03-19T03:47:00.069Z,10.40
2023-03-19T03:51:01.792Z,10.30
2023-03-19T03:55:03.533Z,10.30
2023-03-19T03:59:05.200Z,10.30
2023-03-19T04:03:07.103Z,10.20
2023-03-19T04:07:08.856Z,10.20
2023-03-19T04:11:10.711Z,10.10
2023-03-19T04:15:13.444Z,10.10
2023-03-19T04:19:15.638Z,10.00
2023-03-19T04:23:17.228Z,9.90
2023-03-19T04:27:19.608Z,9.90
2023-03-19T04:31:21.259Z,9.90
2023-03-19T04:35:22.892Z,9.90
2023-03-19T04:39:24.829Z,9.90
2023-03-19T04:43:26.432Z,9.90
2023-03-19T04:47:28.058Z,10.00
2023-03-19T04:51:29.642Z,10.00
2023-03-19T04:55:31.232Z,10.10
2023-03-19T04:59:32.853Z,10.20
2023-03-19T05:03:36.954Z,10.20
2023-03-19T05:07:38.576Z,10.30
2023-03-19T05:11:40.446Z,10.20
2023-03-19T05:15:43.400Z,10.20
2023-03-19T05:19:50.400Z,10.20
2023-03-19T05:23:54.639Z,10.20
2023-03-19T05:27:56.892Z,10.20
2023-03-19T05:31:59.750Z,10.20
2023-03-19T05:36:01.777Z,10.20
2023-03-19T05:40:03.483Z,10.20
2023-03-19T05:44:05.345Z,10.10
2023-03-19T05:48:06.983Z,10.10
2023-03-19T05:52:08.999Z,10.10
2023-03-19T05:56:10.965Z,10.10
2023-03-19T06:00:13.098Z,10.10
2023-03-19T06:04:14.837Z,10.10
2023-03-19T06:08:19.180Z,10.10
2023-03-19T06:12:21.869Z,10.10
2023-03-19T06:16:23.533Z,10.10
2023-03-19T06:20:25.883Z,10.10
2023-03-19T06:24:30.633Z,10.10
2023-03-19T06:28:32.984Z,10.00
2023-03-19T06:32:35.060Z,10.00
2023-03-19T06:36:37.236Z,10.10
2023-03-19T06:40:38.915Z,10.00
2023-03-19T06:44:40.794Z,10.10
2023-03-19T06:48:42.415Z,10.10
2023-03-19T06:52:44.370Z,10.10
2023-03-19T06:56:47.162Z,10.20
2023-03-19T07:00:48.831Z,10.20
2023-03-19T07:04:52.817Z,10.20
2023-03-19T07:08:54.883Z,10.30
2023-03-19T07:12:56.652Z,10.30
2023-03-19T07:16:58.215Z,10.30
2023-03-19T07:20:59.946Z,10.30
2023-03-19T07:25:01.583Z,10.40
2023-03-19T07:29:03.666Z,10.50
2023-03-19T07:33:07.096Z,10.40
2023-03-19T07:37:08.781Z,10.50
2023-03-19T07:41:10.616Z,10.60
2023-03-19T07:45:12.347Z,10.60
2023-03-19T07:49:14.020Z,10.60
2023-03-19T07:53:15.905Z,10.60
2023-03-19T07:57:17.592Z,10.60
2023-03-19T08:01:19.346Z,10.70
2023-03-19T08:05:21.034Z,10.70
2023-03-19T08:09:22.820Z,10.80
2023-03-19T08:13:24.455Z,10.70
2023-03-19T08:17:27.159Z,10.90
2023-03-19T08:21:29.719Z,11.00
2023-03-19T08:25:32.640Z,11.10
2023-03-19T08:29:34.451Z,11.20
2023-03-19T08:33:36.524Z,11.50
2023-03-19T08:37:38.268Z,11.70
2023-03-19T08:41:39.848Z,11.70
2023-03-19T08:45:41.591Z,11.70
2023-03-19T08:49:43.164Z,11.80
2023-03-19T08:53:44.895Z,12.00
2023-03-19T08:57:48.903Z,12.20
2023-03-19T09:01:51.944Z,12.50
2023-03-19T09:05:53.571Z,12.50
2023-03-19T09:09:55.655Z,12.40
2023-03-19T09:13:57.499Z,12.50
2023-03-19T09:17:59.173Z,12.70
2023-03-19T09:22:01.686Z,12.90
2023-03-19T09:26:03.280Z,13.10
2023-03-19T09:30:05.111Z,12.90
2023-03-19T09:34:07.157Z,12.90
2023-03-19T09:38:08.962Z,13.00
2023-03-19T09:42:13.593Z,13.20
2023-03-19T09:46:22.486Z,13.30
2023-03-19T09:50:25.857Z,13.40
2023-03-19T09:54:37.107Z,13.60
2023-03-19T09:58:39.212Z,13.30
2023-03-19T10:02:42.540Z,13.30
2023-03-19T10:06:44.565Z,13.40
2023-03-19T10:10:46.526Z,13.40
2023-03-19T10:14:55.007Z,13.20
2023-03-19T10:19:02.408Z,13.20
2023-03-19T10:23:07.072Z,13.10
2023-03-19T10:27:20.526Z,13.30
2023-03-19T10:31:26.366Z,13.30
2023-03-19T10:35:37.996Z,13.40
2023-03-19T10:39:40.767Z,13.40
2023-03-19T10:43:43.281Z,13.50
2023-03-19T10:47:44.979Z,13.80
2023-03-19T10:51:46.749Z,13.90
2023-03-19T10:55:53.192Z,13.90
2023-03-19T10:59:57.316Z,14.10
2023-03-19T11:03:59.675Z,14.20
2023-03-19T11:08:05.647Z,14.40
2023-03-19T11:12:25.446Z,14.30
2023-03-19T11:16:27.082Z,14.80
2023-03-19T11:20:32.599Z,14.80
2023-03-19T11:24:37.239Z,14.90
2023-03-19T11:28:42.816Z,14.80
2023-03-19T11:33:05.682Z,14.50
2023-03-19T11:37:11.657Z,14.80
2023-03-19T11:41:27.050Z,14.80
2023-03-19T11:45:47.626Z,14.50
2023-03-19T11:49:58.647Z,14.50
2023-03-19T11:54:15.656Z,14.60
2023-03-19T11:58:18.031Z,14.40
2023-03-19T12:02:19.653Z,14.40
2023-03-19T12:06:28.485Z,14.40
2023-03-19T12:10:39.219Z,14.30
2023-03-19T12:14:43.946Z,14.20
2023-03-19T12:19:05.226Z,14.50
2023-03-19T12:23:27.039Z,14.70
2023-03-19T12:27:28.786Z,14.50
2023-03-19T12:31:38.978Z,14.60
2023-03-19T12:35:41.989Z,14.40
2023-03-19T12:40:05.538Z,14.20
2023-03-19T12:44:11.627Z,14.10
2023-03-19T12:48:23.786Z,13.90
2023-03-19T12:52:41.935Z,14.00
2023-03-19T12:57:02.538Z,14.10
2023-03-19T13:01:09.603Z,14.30
2023-03-19T13:05:30.744Z,14.20
2023-03-19T13:10:04.706Z,14.20
2023-03-19T13:14:25.806Z,14.30
2023-03-19T13:18:27.371Z,14.70
2023-03-19T13:22:32.149Z,15.20
2023-03-19T13:26:33.975Z,14.60
2023-03-19T13:30:39.412Z,14.30
2023-03-19T13:34:41.114Z,14.50
2023-03-19T13:38:48.376Z,14.50
2023-03-19T13:42:56.189Z,14.70
2023-03-19T13:47:24.119Z,15.10
2023-03-19T13:51:28.532Z,15.50
2023-03-19T13:55:32.515Z,15.50
2023-03-19T13:59:44.299Z,14.70
2023-03-19T14:04:12.496Z,15.20
2023-03-19T14:08:22.268Z,15.10
2023-03-19T14:12:34.602Z,14.90
2023-03-19T14:16:37.737Z,14.90
2023-03-19T14:20:51.941Z,15.20
2023-03-19T14:24:57.738Z,15.30
2023-03-19T14:29:02.004Z,15.80
2023-03-19T14:33:05.781Z,15.60
2023-03-19T14:37:18.372Z,15.80
2023-03-19T14:41:21.536Z,16.00
2023-03-19T14:45:23.127Z,15.80
2023-03-19T14:49:43.575Z,15.70
2023-03-19T14:53:56.044Z,15.60
2023-03-19T14:58:00.640Z,15.10
2023-03-19T15:02:02.311Z,14.70
2023-03-19T15:06:05.204Z,14.40
2023-03-19T15:10:08.500Z,14.40
2023-03-19T15:14:30.470Z,13.60
2023-03-19T15:18:32.178Z,13.60
2023-03-19T15:22:34.693Z,13.20
2023-03-19T15:26:37.185Z,13.20
2023-03-19T15:30:52.366Z,13.10
2023-03-19T15:34:56.866Z,13.00
2023-03-19T15:39:06.933Z,13.10
2023-03-19T15:43:10.746Z,12.90
2023-03-19T15:47:16.537Z,13.20
2023-03-19T15:51:20.788Z,13.20
2023-03-19T15:55:23.636Z,13.00
2023-03-19T15:59:29.870Z,12.80
2023-03-19T16:03:35.414Z,12.50
2023-03-19T16:07:43.184Z,12.50
2023-03-19T16:11:45.616Z,12.30
2023-03-19T16:15:48.589Z,12.30
2023-03-19T16:19:50.283Z,12.60
2023-03-19T16:23:54.655Z,12.80
2023-03-19T16:27:56.767Z,12.60
2023-03-19T16:32:01.582Z,12.50
2023-03-19T16:36:03.540Z,12.50
2023-03-19T16:40:14.164Z,12.30
2023-03-19T16:44:17.494Z,12.00
2023-03-19T16:48:19.400Z,11.70
2023-03-19T16:52:22.511Z,11.70
2023-03-19T16:56:24.131Z,11.80
2023-03-19T17:00:26.299Z,12.00
2023-03-19T17:04:28.560Z,12.10
2023-03-19T17:08:30.585Z,12.20
2023-03-19T17:12:32.308Z,12.10
2023-03-19T17:16:34.195Z,12.10
2023-03-19T17:20:36.773Z,12.00
2023-03-19T17:24:38.553Z,12.30
2023-03-19T17:28:40.502Z,11.90
2023-03-19T17:32:45.770Z,11.70
2023-03-19T17:36:51.969Z,12.00
2023-03-19T17:40:53.818Z,12.10
2023-03-19T17:44:58.548Z,12.10
2023-03-19T17:49:00.272Z,12.10
2023-03-19T17:53:01.880Z,12.20
2023-03-19T17:57:05.832Z,12.10
2023-03-19T18:01:15.031Z,12.20
2023-03-19T18:05:20.923Z,12.10
2023-03-19T18:09:24.261Z,12.10
2023-03-19T18:13:25.976Z,12.00
2023-03-19T18:17:27.637Z,11.90
2023-03-19T18:21:29.263Z,11.80
2023-03-19T18:25:32.285Z,11.70
2023-03-19T18:29:33.954Z,11.70
2023-03-19T18:33:35.552Z,11.70
2023-03-19T18:37:37.441Z,11.60
2023-03-19T18:41:40.984Z,11.50
2023-03-19T18:45:43.521Z,11.60
2023-03-19T18:49:45.151Z,11.50
2023-03-19T18:53:46.714Z,11.40
2023-03-19T18:57:54.086Z,11.30
2023-03-19T19:01:58.885Z,11.50
2023-03-19T19:06:00.694Z,11.50
2023-03-19T19:10:08.096Z,11.50
2023-03-19T19:14:15.568Z,11.50
2023-03-19T19:18:20.247Z,11.50
2023-03-19T19:22:21.957Z,11.50
2023-03-19T19:26:27.750Z,11.40
2023-03-19T19:30:30.103Z,11.40
2023-03-19T19:34:31.737Z,11.30
2023-03-19T19:38:33.301Z,11.30
2023-03-19T19:42:34.957Z,11.30
2023-03-19T19:46:36.684Z,11.20
2023-03-19T19:50:43.355Z,11.10
2023-03-19T19:54:45.673Z,11.30
2023-03-19T19:58:50.514Z,11.30
2023-03-19T20:02:52.742Z,11.20
2023-03-19T20:06:54.678Z,11.20
2023-03-19T20:10:58.894Z,11.20
2023-03-19T20:15:26.388Z,11.20
2023-03-19T20:19:32.889Z,11.10
2023-03-19T20:23:35.017Z,11.10
2023-03-19T20:27:37.824Z,11.10
2023-03-19T20:31:39.913Z,11.10
2023-03-19T20:35:47.135Z,11.00
2023-03-19T20:39:51.266Z,11.00
2023-03-19T20:43:53.587Z,11.00
2023-03-19T20:47:57.549Z,11.00
2023-03-19T20:52:08.113Z,10.90
2023-03-19T20:56:15.465Z,10.90
2023-03-19T21:00:22.000Z,10.80
2023-03-19T21:04:24.140Z,10.60
2023-03-19T21:08:37.188Z,10.60
2023-03-19T21:12:38.751Z,10.30
2023-03-19T21:16:40.675Z,10.30
2023-03-19T21:20:43.602Z,10.20
2023-03-19T21:24:47.710Z,10.00
2023-03-19T21:28:51.185Z,10.00
2023-03-19T21:32:54.182Z,9.90
2023-03-19T21:36:56.055Z,9.80
2023-03-19T21:40:59.704Z,9.70
2023-03-19T21:45:03.673Z,9.70
2023-03-19T21:49:10.632Z,9.60
2023-03-19T21:53:12.859Z,9.60
2023-03-19T21:57:16.132Z,9.50
2023-03-19T22:01:19.876Z,9.40
2023-03-19T22:05:32.038Z,9.30
2023-03-19T22:09:33.725Z,9.20
2023-03-19T22:13:35.363Z,9.20
2023-03-19T22:17:37.380Z,9.20
2023-03-19T22:21:38.968Z,9.10
2023-03-19T22:25:42.937Z,9.10
2023-03-19T22:29:45.744Z,9.10
2023-03-19T22:33:49.895Z,9.10
2023-03-19T22:37:51.484Z,9.10
2023-03-19T22:41:53.093Z,9.10
2023-03-19T22:45:59.356Z,8.90
2023-03-19T22:50:01.109Z,8.80
2023-03-19T22:54:02.714Z,8.90
2023-03-19T22:58:04.341Z,8.80
2023-03-19T23:02:06.920Z,8.70
2023-03-19T23:06:27.019Z,8.60
2023-03-19T23:10:32.548Z,8.60
2023-03-19T23:14:34.533Z,8.60
2023-03-19T23:18:36.730Z,8.60
2023-03-19T23:22:38.670Z,8.70
2023-03-19T23:26:42.525Z,8.60
2023-03-19T23:30:44.192Z,8.70
2023-03-19T23:34:58.529Z,8.80
2023-03-19T23:39:01.988Z,8.80
2023-03-19T23:43:03.903Z,8.80
2023-03-19T23:47:07.187Z,8.70
2023-03-19T23:51:15.763Z,8.70
2023-03-19T23:55:18.335Z,8.60
2023-03-19T23:59:19.990Z,8.60
